createdAt,value
2024-02-28T00:02:13.395Z,6.90
2024-02-28T00:05:35.047Z,6.90
2024-02-28T00:08:56.668Z,6.90
2024-02-28T00:12:18.333Z,6.90
2024-02-28T00:15:40.208Z,6.80
2024-02-28T00:19:03.234Z,6.80
2024-02-28T00:22:24.881Z,6.80
2024-02-28T00:25:46.946Z,6.80
2024-02-28T00:29:08.565Z,6.80
2024-02-28T00:32:30.205Z,6.80
2024-02-28T00:35:53.171Z,6.80
2024-02-28T00:39:14.920Z,6.80
2024-02-28T00:42:36.606Z,6.80
2024-02-28T00:45:58.264Z,6.80
2024-02-28T00:49:20.040Z,6.80
2024-02-28T00:52:43.017Z,6.80
2024-02-28T00:56:04.720Z,6.80
2024-02-28T00:59:26.351Z,6.80
2024-02-28T01:02:47.975Z,6.80
2024-02-28T01:06:09.594Z,6.80
2024-02-28T01:09:32.625Z,6.80
2024-02-28T01:12:54.292Z,6.80
2024-02-28T01:16:15.957Z,6.80
2024-02-28T01:19:37.585Z,6.80
2024-02-28T01:22:59.215Z,6.80
2024-02-28T01:26:22.209Z,6.80
2024-02-28T01:29:43.828Z,6.70
2024-02-28T01:33:05.809Z,6.80
2024-02-28T01:36:27.578Z,6.70
2024-02-28T01:39:49.342Z,6.70
2024-02-28T01:43:12.660Z,6.70
2024-02-28T01:46:34.295Z,6.70
2024-02-28T01:49:55.916Z,6.70
2024-02-28T01:53:19.279Z,6.70
2024-02-28T01:56:42.559Z,6.70
2024-02-28T02:00:06.410Z,6.70
2024-02-28T02:03:28.040Z,6.70
2024-02-28T02:06:49.784Z,6.60
2024-02-28T02:10:11.450Z,6.60
2024-02-28T02:13:33.162Z,6.60
2024-02-28T02:16:56.155Z,6.60
2024-02-28T02:20:18.065Z,6.60
2024-02-28T02:23:41.079Z,6.60
2024-02-28T02:27:03.350Z,6.60
2024-02-28T02:30:25.053Z,6.60
2024-02-28T02:33:46.741Z,6.60
2024-02-28T02:37:08.409Z,6.60
2024-02-28T02:40:31.397Z,6.60
2024-02-28T02:43:53.130Z,6.60
2024-02-28T02:47:14.779Z,6.60
2024-02-28T02:50:36.425Z,6.60
2024-02-28T02:53:58.036Z,6.60
2024-02-28T02:57:21.188Z,6.50
2024-02-28T03:00:42.929Z,6.60
2024-02-28T03:04:04.707Z,6.60
2024-02-28T03:07:26.426Z,6.60
2024-02-28T03:10:48.113Z,6.60
2024-02-28T03:14:11.145Z,6.50
2024-02-28T03:17:32.821Z,6.50
2024-02-28T03:20:54.470Z,6.50
2024-02-28T03:24:16.195Z,6.50
2024-02-28T03:27:37.955Z,6.50
2024-02-28T03:31:00.979Z,6.40
2024-02-28T03:34:22.727Z,6.50
2024-02-28T03:37:44.350Z,6.50
2024-02-28T03:41:06.546Z,6.50
2024-02-28T03:44:28.189Z,6.40
2024-02-28T03:47:51.202Z,6.40
2024-02-28T03:51:12.948Z,6.40
2024-02-28T03:54:34.646Z,6.40
2024-02-28T03:57:56.347Z,6.40
2024-02-28T04:01:18.052Z,6.40
2024-02-28T04:04:41.073Z,6.40
2024-02-28T04:08:02.748Z,6.40
2024-02-28T04:11:24.432Z,6.40
2024-02-28T04:14:46.174Z,6.40
2024-02-28T04:18:07.919Z,6.30
2024-02-28T04:21:31.001Z,6.40
2024-02-28T04:24:52.784Z,6.30
2024-02-28T04:28:14.474Z,6.30
2024-02-28T04:31:38.762Z,6.30
2024-02-28T04:35:00.416Z,6.30
2024-02-28T04:38:23.395Z,6.30
2024-02-28T04:41:45.045Z,6.30
2024-02-28T04:45:07.201Z,6.30
2024-02-28T04:48:28.877Z,6.30
2024-02-28T04:51:50.564Z,6.20
2024-02-28T04:55:13.769Z,6.20
2024-02-28T04:58:36.279Z,6.20
2024-02-28T05:01:57.950Z,6.10
2024-02-28T05:05:19.637Z,6.10
2024-02-28T05:08:41.430Z,6.10
2024-02-28T05:12:04.568Z,6.10
2024-02-28T05:15:26.257Z,6.10
2024-02-28T05:18:48.176Z,6.10
2024-02-28T05:22:12.685Z,6.00
2024-02-28T05:25:34.318Z,6.00
2024-02-28T05:28:57.337Z,6.10
2024-02-28T05:32:18.961Z,6.00
2024-02-28T05:35:40.707Z,6.00
2024-02-28T05:39:03.230Z,6.00
2024-02-28T05:42:24.899Z,6.00
2024-02-28T05:45:47.958Z,6.00
2024-02-28T05:49:09.604Z,6.00
2024-02-28T05:52:31.227Z,6.00
2024-02-28T05:55:52.847Z,6.00
2024-02-28T05:59:14.474Z,6.00
2024-02-28T06:02:37.529Z,6.00
2024-02-28T06:05:59.145Z,5.90
2024-02-28T06:09:20.875Z,6.00
2024-02-28T06:12:42.673Z,6.00
2024-02-28T06:16:04.761Z,6.00
2024-02-28T06:19:27.783Z,6.00
2024-02-28T06:22:49.419Z,6.00
2024-02-28T06:26:11.297Z,5.90
2024-02-28T06:29:35.875Z,6.00
2024-02-28T06:32:59.741Z,6.00
2024-02-28T06:36:22.801Z,5.90
2024-02-28T06:39:44.483Z,5.90
2024-02-28T06:43:06.246Z,5.90
2024-02-28T06:46:27.915Z,5.90
2024-02-28T06:49:49.530Z,5.90
2024-02-28T06:53:12.579Z,5.90
2024-02-28T06:56:34.233Z,6.00
2024-02-28T06:59:56.106Z,6.00
2024-02-28T07:03:17.733Z,6.00
2024-02-28T07:06:39.520Z,6.00
2024-02-28T07:10:03.219Z,6.10
2024-02-28T07:13:24.940Z,6.10
2024-02-28T07:16:46.669Z,6.20
2024-02-28T07:20:08.669Z,6.30
2024-02-28T07:23:30.301Z,6.20
2024-02-28T07:26:53.259Z,6.30
2024-02-28T07:30:15.133Z,6.30
2024-02-28T07:33:36.853Z,6.40
2024-02-28T07:36:58.572Z,6.50
2024-02-28T07:40:20.257Z,6.60
2024-02-28T07:43:44.449Z,6.70
2024-02-28T07:47:07.021Z,6.70
2024-02-28T07:50:28.659Z,6.70
2024-02-28T07:53:50.257Z,6.80
2024-02-28T07:57:12.221Z,6.80
2024-02-28T08:00:36.822Z,6.80
2024-02-28T08:03:58.961Z,6.70
2024-02-28T08:07:20.643Z,6.70
2024-02-28T08:10:42.324Z,6.70
2024-02-28T08:14:03.968Z,6.60
2024-02-28T08:17:26.921Z,6.70
2024-02-28T08:20:48.601Z,6.60
2024-02-28T08:24:10.229Z,6.60
2024-02-28T08:27:33.126Z,6.60
2024-02-28T08:30:55.082Z,6.70
2024-02-28T08:34:18.147Z,6.70
2024-02-28T08:37:39.817Z,6.80
2024-02-28T08:41:01.439Z,6.80
2024-02-28T08:44:23.089Z,6.90
2024-02-28T08:47:44.736Z,6.90
2024-02-28T08:51:07.814Z,6.90
2024-02-28T08:54:29.470Z,6.90
2024-02-28T08:57:51.181Z,7.00
2024-02-28T09:01:14.475Z,7.00
2024-02-28T09:04:36.184Z,7.10
2024-02-28T09:07:59.150Z,7.10
2024-02-28T09:11:20.833Z,7.10
2024-02-28T09:14:42.466Z,7.10
2024-02-28T09:18:04.420Z,7.10
2024-02-28T09:21:26.080Z,7.30
2024-02-28T09:24:49.163Z,7.30
2024-02-28T09:28:10.865Z,7.40
2024-02-28T09:31:32.589Z,7.50
2024-02-28T09:34:54.302Z,7.50
2024-02-28T09:38:15.969Z,7.50
2024-02-28T09:41:38.972Z,7.60
2024-02-28T09:45:01.320Z,7.60
2024-02-28T09:48:23.185Z,7.70
2024-02-28T09:51:45.251Z,7.70
2024-02-28T09:55:07.194Z,7.70
2024-02-28T09:58:31.250Z,7.80
2024-02-28T10:01:55.640Z,7.70
2024-02-28T10:05:18.016Z,7.80
2024-02-28T10:08:39.641Z,7.70
2024-02-28T10:12:03.385Z,7.70
2024-02-28T10:15:27.178Z,7.80
2024-02-28T10:18:48.884Z,8.00
2024-02-28T10:22:10.643Z,8.10
2024-02-28T10:25:39.037Z,8.20
2024-02-28T10:29:04.264Z,8.30
2024-02-28T10:32:27.264Z,8.40
2024-02-28T10:35:51.188Z,8.40
2024-02-28T10:39:12.841Z,8.40
2024-02-28T10:42:34.827Z,8.40
2024-02-28T10:46:17.042Z,8.50
2024-02-28T10:49:40.417Z,8.60
2024-02-28T10:53:02.762Z,8.60
2024-02-28T10:56:24.461Z,8.60
2024-02-28T10:59:46.616Z,8.50
2024-02-28T11:03:08.659Z,8.50
2024-02-28T11:06:31.722Z,8.60
2024-02-28T11:09:54.713Z,8.80
2024-02-28T11:13:22.740Z,8.80
2024-02-28T11:16:44.406Z,8.90
2024-02-28T11:20:12.427Z,8.90
2024-02-28T11:23:38.149Z,9.00
2024-02-28T11:26:59.983Z,9.10
2024-02-28T11:30:22.618Z,9.10
2024-02-28T11:33:44.374Z,8.90
2024-02-28T11:37:06.347Z,8.50
2024-02-28T11:40:29.409Z,8.30
2024-02-28T11:43:52.504Z,8.10
2024-02-28T11:47:14.534Z,8.00
2024-02-28T11:50:38.470Z,7.90
2024-02-28T11:54:02.014Z,8.10
2024-02-28T11:57:25.018Z,8.20
2024-02-28T12:00:47.716Z,8.20
2024-02-28T12:04:09.834Z,8.30
2024-02-28T12:07:31.683Z,8.40
2024-02-28T12:10:53.392Z,8.50
2024-02-28T12:14:16.363Z,8.30
2024-02-28T12:17:38.009Z,8.40
2024-02-28T12:20:59.675Z,8.50
2024-02-28T12:24:21.762Z,8.40
2024-02-28T12:27:43.477Z,8.30
2024-02-28T12:31:09.630Z,8.20
2024-02-28T12:34:31.460Z,8.20
2024-02-28T12:37:53.068Z,8.10
2024-02-28T12:41:14.917Z,8.20
2024-02-28T12:44:36.563Z,8.10
2024-02-28T12:47:59.526Z,8.00
2024-02-28T12:51:36.078Z,8.00
2024-02-28T12:54:57.758Z,7.90
2024-02-28T12:58:19.416Z,7.80
2024-02-28T13:01:41.280Z,7.90
2024-02-28T13:05:04.870Z,7.90
2024-02-28T13:08:26.512Z,7.90
2024-02-28T13:11:48.183Z,7.90
2024-02-28T13:15:10.040Z,7.90
2024-02-28T13:18:31.709Z,8.10
2024-02-28T13:21:54.740Z,8.00
2024-02-28T13:25:16.623Z,8.00
2024-02-28T13:28:38.321Z,8.10
2024-02-28T13:32:00.000Z,8.00
2024-02-28T13:35:21.633Z,7.90
2024-02-28T13:38:44.600Z,7.80
2024-02-28T13:42:06.359Z,7.70
2024-02-28T13:45:28.024Z,7.60
2024-02-28T13:48:49.722Z,7.60
2024-02-28T13:52:11.441Z,7.60
2024-02-28T13:55:34.428Z,7.60
2024-02-28T13:58:56.052Z,7.60
2024-02-28T14:02:17.863Z,7.60
2024-02-28T14:05:39.722Z,7.60
2024-02-28T14:09:01.373Z,7.70
2024-02-28T14:12:24.379Z,7.60
2024-02-28T14:15:46.106Z,7.60
2024-02-28T14:19:07.786Z,7.60
2024-02-28T14:22:29.453Z,7.50
2024-02-28T14:25:51.067Z,7.60
2024-02-28T14:29:14.563Z,7.60
2024-02-28T14:32:36.476Z,7.50
2024-02-28T14:35:59.244Z,7.40
2024-02-28T14:39:20.894Z,7.30
2024-02-28T14:42:43.726Z,7.30
2024-02-28T14:46:06.761Z,7.30
2024-02-28T14:49:28.471Z,7.30
2024-02-28T14:52:50.094Z,7.30
2024-02-28T14:56:11.728Z,7.30
2024-02-28T14:59:33.415Z,7.20
2024-02-28T15:02:56.454Z,7.20
2024-02-28T15:06:18.404Z,7.20
2024-02-28T15:09:41.375Z,7.20
2024-02-28T15:13:03.396Z,7.30
2024-02-28T15:16:25.073Z,7.30
2024-02-28T15:19:48.172Z,7.30
2024-02-28T15:23:10.807Z,7.30
2024-02-28T15:26:39.638Z,7.20
2024-02-28T15:30:08.319Z,7.20
2024-02-28T15:33:30.060Z,7.20
2024-02-28T15:36:53.146Z,7.10
2024-02-28T15:40:14.867Z,7.10
2024-02-28T15:43:36.552Z,7.10
2024-02-28T15:46:58.273Z,7.10
2024-02-28T15:50:19.968Z,7.10
2024-02-28T15:53:42.974Z,6.90
2024-02-28T15:57:05.735Z,6.90
2024-02-28T16:00:27.685Z,6.90
2024-02-28T16:03:49.409Z,6.90
2024-02-28T16:07:11.170Z,6.80
2024-02-28T16:10:34.172Z,6.80
2024-02-28T16:13:55.835Z,6.80
2024-02-28T16:17:17.700Z,6.70
2024-02-28T16:20:39.373Z,6.70
2024-02-28T16:24:01.006Z,6.60
2024-02-28T16:27:24.094Z,6.60
2024-02-28T16:30:45.769Z,6.50
2024-02-28T16:34:07.541Z,6.50
2024-02-28T16:37:29.180Z,6.50
2024-02-28T16:40:50.804Z,6.50
2024-02-28T16:44:13.813Z,6.40
2024-02-28T16:47:35.449Z,6.40
2024-02-28T16:50:57.165Z,6.40
2024-02-28T16:54:18.832Z,6.40
2024-02-28T16:57:42.305Z,6.40
2024-02-28T17:01:05.975Z,6.30
2024-02-28T17:04:27.646Z,6.30
2024-02-28T17:07:49.334Z,6.30
2024-02-28T17:11:11.110Z,6.30
2024-02-28T17:14:32.781Z,6.30
2024-02-28T17:17:55.777Z,6.30
2024-02-28T17:21:17.462Z,6.30
2024-02-28T17:24:39.217Z,6.20
2024-02-28T17:28:01.014Z,6.20
2024-02-28T17:31:22.786Z,6.20
2024-02-28T17:34:45.773Z,6.20
2024-02-28T17:38:07.479Z,6.30
2024-02-28T17:41:29.108Z,6.30
2024-02-28T17:44:50.766Z,6.30
2024-02-28T17:48:12.413Z,6.30
2024-02-28T17:51:35.686Z,6.30
2024-02-28T17:54:57.716Z,6.30
2024-02-28T17:58:19.384Z,6.30
2024-02-28T18:01:41.109Z,6.30
2024-02-28T18:05:02.851Z,6.20
2024-02-28T18:08:25.932Z,6.20
2024-02-28T18:11:47.647Z,6.20
2024-02-28T18:15:09.737Z,6.20
2024-02-28T18:18:31.427Z,6.20
2024-02-28T18:21:53.199Z,6.20
2024-02-28T18:25:16.378Z,6.20
2024-02-28T18:28:38.130Z,6.20
2024-02-28T18:31:59.795Z,6.20
2024-02-28T18:35:21.419Z,6.20
2024-02-28T18:38:43.112Z,6.20
2024-02-28T18:42:06.516Z,6.20
2024-02-28T18:45:28.165Z,6.20
2024-02-28T18:49:00.112Z,6.20
2024-02-28T18:52:21.782Z,6.20
2024-02-28T18:55:43.419Z,6.20
2024-02-28T18:59:06.410Z,6.20
2024-02-28T19:02:29.422Z,6.20
2024-02-28T19:05:51.041Z,6.20
2024-02-28T19:09:12.774Z,6.20
2024-02-28T19:12:34.513Z,6.20
2024-02-28T19:15:57.533Z,6.20
2024-02-28T19:19:21.178Z,6.20
2024-02-28T19:22:42.907Z,6.20
2024-02-28T19:26:04.778Z,6.20
2024-02-28T19:29:26.664Z,6.20
2024-02-28T19:32:50.363Z,6.20
2024-02-28T19:36:13.266Z,6.20
2024-02-28T19:39:36.696Z,6.20
2024-02-28T19:42:58.661Z,6.20
2024-02-28T19:46:22.560Z,6.20
2024-02-28T19:49:45.653Z,6.20
2024-02-28T19:53:07.285Z,6.20
2024-02-28T19:56:28.918Z,6.20
2024-02-28T19:59:50.587Z,6.10
2024-02-28T20:03:12.213Z,6.10
2024-02-28T20:06:35.182Z,6.00
2024-02-28T20:09:56.911Z,6.00
2024-02-28T20:13:18.584Z,6.00
2024-02-28T20:16:41.343Z,6.00
2024-02-28T20:20:03.326Z,6.00
2024-02-28T20:23:26.283Z,6.10
2024-02-28T20:26:48.219Z,6.10
2024-02-28T20:30:10.162Z,6.10
2024-02-28T20:33:31.866Z,6.00
2024-02-28T20:36:53.533Z,6.00
2024-02-28T20:40:16.751Z,5.90
2024-02-28T20:43:38.380Z,5.80
2024-02-28T20:47:00.207Z,5.60
2024-02-28T20:50:21.893Z,5.30
2024-02-28T20:53:43.498Z,5.00
2024-02-28T20:57:12.701Z,4.80
2024-02-28T21:00:38.500Z,4.60
2024-02-28T21:04:00.231Z,4.40
2024-02-28T21:07:33.478Z,4.20
2024-02-28T21:11:03.081Z,4.10
2024-02-28T21:14:26.088Z,4.00
2024-02-28T21:17:47.783Z,3.90
2024-02-28T21:21:09.734Z,3.80
2024-02-28T21:24:32.178Z,3.70
2024-02-28T21:27:53.850Z,3.70
2024-02-28T21:31:19.775Z,3.60
2024-02-28T21:34:41.521Z,3.60
2024-02-28T21:38:03.287Z,3.60
2024-02-28T21:41:25.133Z,3.60
2024-02-28T21:44:46.750Z,3.60
2024-02-28T21:48:09.885Z,3.50
2024-02-28T21:51:31.900Z,3.40
2024-02-28T21:54:54.509Z,3.20
2024-02-28T21:58:16.227Z,3.10
2024-02-28T22:01:38.095Z,3.00
2024-02-28T22:05:01.218Z,2.90
2024-02-28T22:08:22.886Z,2.80
2024-02-28T22:11:44.496Z,2.80
2024-02-28T22:15:06.489Z,2.80
2024-02-28T22:18:28.147Z,2.70
2024-02-28T22:21:51.145Z,2.60
2024-02-28T22:25:12.836Z,2.40
2024-02-28T22:28:35.094Z,2.40
2024-02-28T22:31:56.704Z,2.40
2024-02-28T22:35:18.336Z,2.40
2024-02-28T22:38:41.306Z,2.40
2024-02-28T22:42:03.072Z,2.40
2024-02-28T22:45:24.707Z,2.40
2024-02-28T22:48:46.480Z,2.30
2024-02-28T22:52:08.340Z,2.30
2024-02-28T22:55:31.426Z,2.20
2024-02-28T22:58:53.195Z,2.10
2024-02-28T23:02:14.819Z,2.10
2024-02-28T23:05:36.453Z,2.00
2024-02-28T23:08:58.286Z,2.10
2024-02-28T23:12:21.232Z,2.20
2024-02-28T23:15:42.899Z,2.20
2024-02-28T23:19:04.673Z,2.10
2024-02-28T23:22:26.399Z,2.00
2024-02-28T23:25:48.190Z,1.90
2024-02-28T23:29:11.166Z,1.80
2024-02-28T23:32:32.849Z,1.80
2024-02-28T23:35:54.506Z,1.80
2024-02-28T23:39:16.157Z,1.80
2024-02-28T23:42:37.887Z,1.70
2024-02-28T23:46:00.980Z,1.70
2024-02-28T23:49:22.618Z,1.70
2024-02-28T23:52:44.264Z,1.70
2024-02-28T23:56:06.456Z,1.70
2024-02-28T23:59:28.093Z,1.70
